Archival Weather

Al Kharj

Al Kharj, Saudi Arabia (OEKJ)

Report from: Thursday, February 22, 2024 12:00 PM UTC
Current time: Wednesday, April 24, 2024 7:39 PM UTC

Current weather – Weather history – Daily summaries
Weather forecast

Temperature25.0°C (77.0°F)
Dew point0.0°C (32.0°F)
Winds 5 kts (2.6 m/s, 5.8 mph) East (80°)
Clouds Sky clear
Altimeter30.15 in.Hg (1021 mB)
Relative humidity19 %
Density altitude996 ft. (304 m)
Remarks Ceiling and visibility OK
Flight conditions Visual Meteorological Conditions
Raw dataOEKJ 221200Z 08005KT CAVOK 25/00 Q1021
An error has occurred. This application may no longer respond until reloaded. Reload 🗙